sensor_id;sensor_type;location;lat;lon;timestamp;temperature;humidity
45311;SHT31;68264;51.540;5.854;2023-05-10T00:03:59;13.3;94.0
45311;SHT31;68264;51.540;5.854;2023-05-10T00:17:58;13.2;94.4
45311;SHT31;68264;51.540;5.854;2023-05-10T00:31:57;13.1;94.6
45311;SHT31;68264;51.540;5.854;2023-05-10T00:45:56;13.0;94.6
45311;SHT31;68264;51.540;5.854;2023-05-10T01:15:55;12.9;94.7
45311;SHT31;68264;51.540;5.854;2023-05-10T01:29:55;12.8;94.8
45311;SHT31;68264;51.540;5.854;2023-05-10T01:43:54;13.0;94.6
45311;SHT31;68264;51.540;5.854;2023-05-10T01:57:53;13.0;94.5
45311;SHT31;68264;51.540;5.854;2023-05-10T02:13:25;13.0;94.7
45311;SHT31;68264;51.540;5.854;2023-05-10T02:28:55;12.9;95.3
45311;SHT31;68264;51.540;5.854;2023-05-10T02:43:23;13.0;95.2
45311;SHT31;68264;51.540;5.854;2023-05-10T02:57:42;13.1;95.0
45311;SHT31;68264;51.540;5.854;2023-05-10T03:12:10;13.3;94.5
45311;SHT31;68264;51.540;5.854;2023-05-10T03:26:29;13.2;94.1
45311;SHT31;68264;51.540;5.854;2023-05-10T03:40:58;13.1;93.3
45311;SHT31;68264;51.540;5.854;2023-05-10T03:55:17;13.2;92.5
45311;SHT31;68264;51.540;5.854;2023-05-10T04:09:16;13.2;92.7
45311;SHT31;68264;51.540;5.854;2023-05-10T04:23:44;13.3;93.1
45311;SHT31;68264;51.540;5.854;2023-05-10T04:38:32;13.5;92.9
45311;SHT31;68264;51.540;5.854;2023-05-10T04:52:52;13.3;93.5
45311;SHT31;68264;51.540;5.854;2023-05-10T05:06:51;13.1;93.9
45311;SHT31;68264;51.540;5.854;2023-05-10T05:20:50;13.1;94.1
45311;SHT31;68264;51.540;5.854;2023-05-10T05:34:49;12.9;94.3
45311;SHT31;68264;51.540;5.854;2023-05-10T05:48:48;12.7;93.1
45311;SHT31;68264;51.540;5.854;2023-05-10T06:02:47;12.8;92.0
45311;SHT31;68264;51.540;5.854;2023-05-10T06:17:15;12.9;91.7
45311;SHT31;68264;51.540;5.854;2023-05-10T06:32:03;13.0;90.2
45311;SHT31;68264;51.540;5.854;2023-05-10T06:46:23;13.1;90.3
45311;SHT31;68264;51.540;5.854;2023-05-10T07:02:27;13.2;89.7
45311;SHT31;68264;51.540;5.854;2023-05-10T07:18:56;13.2;89.4
45311;SHT31;68264;51.540;5.854;2023-05-10T07:34:17;13.3;88.9
45311;SHT31;68264;51.540;5.854;2023-05-10T07:49:16;13.4;89.9
45311;SHT31;68264;51.540;5.854;2023-05-10T08:03:15;13.5;90.3
45311;SHT31;68264;51.540;5.854;2023-05-10T08:17:43;13.6;90.0
45311;SHT31;68264;51.540;5.854;2023-05-10T08:32:03;13.5;90.2
45311;SHT31;68264;51.540;5.854;2023-05-10T08:46:31;13.5;90.0
45311;SHT31;68264;51.540;5.854;2023-05-10T09:02:23;13.6;90.5
45311;SHT31;68264;51.540;5.854;2023-05-10T09:18:54;13.5;90.6
45311;SHT31;68264;51.540;5.854;2023-05-10T09:33:54;13.6;90.5
45311;SHT31;68264;51.540;5.854;2023-05-10T09:47:53;13.9;87.6
45311;SHT31;68264;51.540;5.854;2023-05-10T10:02:21;13.9;86.4
45311;SHT31;68264;51.540;5.854;2023-05-10T10:17:09;14.4;85.6
45311;SHT31;68264;51.540;5.854;2023-05-10T10:31:29;14.7;82.6
45311;SHT31;68264;51.540;5.854;2023-05-10T10:46:29;15.6;80.3
45311;SHT31;68264;51.540;5.854;2023-05-10T11:01:28;16.2;77.2
45311;SHT31;68264;51.540;5.854;2023-05-10T11:15:27;15.2;81.3
45311;SHT31;68264;51.540;5.854;2023-05-10T11:30:28;15.5;82.4
45311;SHT31;68264;51.540;5.854;2023-05-10T11:45:27;15.8;79.4
45311;SHT31;68264;51.540;5.854;2023-05-10T11:59:26;16.9;73.7
45311;SHT31;68264;51.540;5.854;2023-05-10T12:13:25;16.0;78.1
45311;SHT31;68264;51.540;5.854;2023-05-10T12:27:24;14.6;85.0
45311;SHT31;68264;51.540;5.854;2023-05-10T12:42:24;14.8;89.6
45311;SHT31;68264;51.540;5.854;2023-05-10T12:57:24;15.2;85.1
45311;SHT31;68264;51.540;5.854;2023-05-10T13:25:51;13.8;87.1
45311;SHT31;68264;51.540;5.854;2023-05-10T13:40:11;14.1;88.8
45311;SHT31;68264;51.540;5.854;2023-05-10T13:54:10;14.7;88.5
45311;SHT31;68264;51.540;5.854;2023-05-10T14:09:10;15.9;84.1
45311;SHT31;68264;51.540;5.854;2023-05-10T14:24:09;16.3;78.8
45311;SHT31;68264;51.540;5.854;2023-05-10T14:38:09;16.2;82.2
45311;SHT31;68264;51.540;5.854;2023-05-10T14:52:08;15.3;84.4
45311;SHT31;68264;51.540;5.854;2023-05-10T15:06:36;15.0;85.9
45311;SHT31;68264;51.540;5.854;2023-05-10T15:20:55;15.0;86.5
45311;SHT31;68264;51.540;5.854;2023-05-10T15:34:54;14.6;88.2
45311;SHT31;68264;51.540;5.854;2023-05-10T15:49:22;14.6;89.2
45311;SHT31;68264;51.540;5.854;2023-05-10T16:03:41;14.5;88.9
45311;SHT31;68264;51.540;5.854;2023-05-10T16:17:40;14.9;87.8
45311;SHT31;68264;51.540;5.854;2023-05-10T16:45:38;14.9;88.5
45311;SHT31;68264;51.540;5.854;2023-05-10T16:59:38;14.6;89.5
45311;SHT31;68264;51.540;5.854;2023-05-10T17:13:37;14.7;89.3
45311;SHT31;68264;51.540;5.854;2023-05-10T17:29:41;15.1;88.8
45311;SHT31;68264;51.540;5.854;2023-05-10T17:45:41;14.9;89.1
45311;SHT31;68264;51.540;5.854;2023-05-10T17:59:40;14.3;90.3
45311;SHT31;68264;51.540;5.854;2023-05-10T18:13:39;14.0;88.8
45311;SHT31;68264;51.540;5.854;2023-05-10T18:27:38;14.1;86.8
45311;SHT31;68264;51.540;5.854;2023-05-10T18:41:37;14.2;86.0
45311;SHT31;68264;51.540;5.854;2023-05-10T18:55:36;13.9;88.2
45311;SHT31;68264;51.540;5.854;2023-05-10T19:09:35;13.6;89.3
45311;SHT31;68264;51.540;5.854;2023-05-10T19:23:34;13.4;90.4
45311;SHT31;68264;51.540;5.854;2023-05-10T19:37:33;13.3;90.9
45311;SHT31;68264;51.540;5.854;2023-05-10T19:51:32;13.0;92.1
45311;SHT31;68264;51.540;5.854;2023-05-10T20:05:31;13.0;92.4
45311;SHT31;68264;51.540;5.854;2023-05-10T20:19:30;13.3;92.0
45311;SHT31;68264;51.540;5.854;2023-05-10T20:33:58;13.3;92.2
45311;SHT31;68264;51.540;5.854;2023-05-10T20:48:47;13.3;92.1
45311;SHT31;68264;51.540;5.854;2023-05-10T21:03:06;13.2;92.4
45311;SHT31;68264;51.540;5.854;2023-05-10T21:17:05;13.1;92.7
45311;SHT31;68264;51.540;5.854;2023-05-10T21:31:33;13.1;93.4
45311;SHT31;68264;51.540;5.854;2023-05-10T21:45:52;13.0;93.5
45311;SHT31;68264;51.540;5.854;2023-05-10T22:00:53;13.1;93.5
45311;SHT31;68264;51.540;5.854;2023-05-10T22:18:29;13.2;93.5
45311;SHT31;68264;51.540;5.854;2023-05-10T22:35:00;13.1;93.5
45311;SHT31;68264;51.540;5.854;2023-05-10T22:48:59;13.0;93.6
45311;SHT31;68264;51.540;5.854;2023-05-10T23:03:27;13.0;93.8
45311;SHT31;68264;51.540;5.854;2023-05-10T23:17:46;12.8;94.2
45311;SHT31;68264;51.540;5.854;2023-05-10T23:32:14;12.7;94.3
45311;SHT31;68264;51.540;5.854;2023-05-10T23:46:34;12.7;94.2
